Flight Track Log - Related Links

Times and Time Zones

All times are in EST time to prevent confusion due to time zone crossing. See the FDX1227 flight status page for this flight to view local times or setup timezone preferences in your user account.

Time Position Orientation Groundspeed Altitude Reporting Facility
EST Latitude Longitude Course Direction KTS MPH feet Rate Location/Type
Fri 11:40:22 PM 30.1888 -97.6786 178° South 140 161 1,200  Level FlightAware ADS-B
Fri 11:40:42 PM 30.1757 -97.6776 176° South 150 173 2,000 2,160 Climbing FlightAware ADS-B
Fri 11:40:47 PM 30.1717 -97.6771 174° South 161 185 2,100 800 Climbing FlightAware ADS-B
Fri 11:40:57 PM 30.1629 -97.6763 176° South 186 214 2,200 800 Climbing FlightAware ADS-B
Fri 11:41:02 PM 30.1585 -97.6756 172° South 197 227 2,300 1,333 Climbing FlightAware ADS-B
Fri 11:41:06 PM 30.1551 -97.6743 162° South 203 234 2,400 1,714 Climbing FlightAware ADS-B
Fri 11:41:09 PM 30.1523 -97.6729 157° South 208 239 2,500 1,714 Climbing FlightAware ADS-B
Fri 11:41:13 PM 30.1502 -97.6713 146° Southeast 214 246 2,600 1,800 Climbing FlightAware ADS-B
Fri 11:41:19 PM 30.1444 -97.6660 142° Southeast 228 262 2,800 2,000 Climbing FlightAware ADS-B
Fri 11:41:22 PM 30.1421 -97.6632 134° Southeast 235 270 2,900 1,500 Climbing FlightAware ADS-B
Fri 11:41:23 PM 30.1424 -97.6632 North 237 273 2,900 2,000 Level FlightAware ADS-B
Fri 11:41:25 PM 30.1401 -97.6601 131° Southeast 244 281 3,000 1,714 Climbing FlightAware ADS-B
Fri 11:41:30 PM 30.1378 -97.6556 121° Southeast 254 292 3,100 1,500 Climbing FlightAware ADS-B
Fri 11:41:33 PM 30.1364 -97.6505 108° East 260 299 3,200 3,333 Climbing FlightAware ADS-B
Fri 11:41:39 PM 30.1342 -97.6423 107° East 264 304 3,600 3,600 Climbing FlightAware ADS-B
Fri 11:41:43 PM 30.1338 -97.6381 96° East 269 310 3,800 3,000 Climbing FlightAware ADS-B
Fri 11:41:53 PM 30.1342 -97.6236 88° East 278 320 4,300 3,231 Climbing FlightAware ADS-B
Fri 11:41:56 PM 30.1349 -97.6178 83° East 266 306 4,500 2,571 Climbing FlightAware ADS-B
Fri 11:42:00 PM 30.1361 -97.6118 77° East 284 327 4,600 2,625 Climbing FlightAware ADS-B
Fri 11:42:12 PM 30.1403 -97.5952 74° East 297 342 5,200 3,273 Climbing FlightAware ADS-B
Fri 11:42:33 PM 30.1482 -97.5624 74° East 305 351 6,400 3,750 Climbing FlightAware ADS-B
Fri 11:42:52 PM 30.1550 -97.5327 75° East 301 346 7,700 3,538 Climbing FlightAware ADS-B
Fri 11:43:12 PM 30.1663 -97.5009 68° East 311 358 8,700 3,220 Climbing FlightAware ADS-B
Fri 11:43:33 PM 30.1797 -97.4751 59° Northeast 312 359 9,900 2,471 Climbing FlightAware ADS-B
Fri 11:44:03 PM 30.2081 -97.4302 54° Northeast 347 399 10,800 1,750 Climbing FlightAware ADS-B
Fri 11:44:11 PM 30.2170 -97.4166 53° Northeast 11,100 1,667 Climbing FlightAware ADS-B (KHOU)
Fri 11:44:21 PM 30.2271 -97.4010 53° Northeast 371 427 11,300 2,129 Climbing FlightAware ADS-B (KHOU)
Fri 11:44:42 PM 30.2498 -97.3676 52° Northeast 380 437 12,200 2,600 Climbing FlightAware ADS-B
Fri 11:44:51 PM 30.2596 -97.3532 52° Northeast 382 440 12,600 2,323 Climbing FlightAware ADS-B (KHOU)
Fri 11:45:13 PM 30.2835 -97.3193 51° Northeast 400 460 13,400 1,800 Climbing FlightAware ADS-B
Fri 11:45:21 PM 30.2941 -97.3043 51° Northeast 408 470 13,500 1,400 Climbing FlightAware ADS-B (KHOU)
Fri 11:45:43 PM 30.3205 -97.2660 51° Northeast 426 490 14,100 1,714 Climbing FlightAware ADS-B
Fri 11:45:49 PM 30.3268 -97.2571 51° Northeast 430 495 14,300 2,200 Climbing FlightAware ADS-B (KHOU)
Fri 11:46:13 PM 30.3583 -97.2112 51° Northeast 442 509 15,200 2,182 Climbing FlightAware ADS-B
Fri 11:46:22 PM 30.3692 -97.1962 50° Northeast 446 513 15,500 2,323 Climbing FlightAware ADS-B (KHOU)
Fri 11:46:44 PM 30.3981 -97.1527 52° Northeast 453 521 16,400 2,276 Climbing FlightAware ADS-B
Fri 11:46:51 PM 30.4076 -97.1395 50° Northeast 457 526 16,600 2,000 Climbing FlightAware ADS-B (KHOU)
Fri 11:47:14 PM 30.4368 -97.0969 52° Northeast 466 536 17,400 2,129 Climbing FlightAware ADS-B
Fri 11:47:22 PM 30.4483 -97.0812 49° Northeast 468 539 17,700 2,400 Climbing FlightAware ADS-B (KHOU)
Fri 11:47:44 PM 30.4774 -97.0377 52° Northeast 472 543 18,600 2,483 Climbing FlightAware ADS-B
Fri 11:47:51 PM 30.4879 -97.0219 52° Northeast 474 545 18,900 2,270 Climbing FlightAware ADS-B (KHOU)
Fri 11:48:21 PM 30.5300 -96.9616 51° Northeast 482 555 20,000 2,063 Climbing FlightAware ADS-B (KHOU)
Fri 11:48:23 PM 30.5322 -96.9576 58° Northeast 481 554 20,000 1,935 Level FlightAware ADS-B
Fri 11:48:52 PM 30.5716 -96.9004 51° Northeast 489 563 21,000 2,129 Climbing FlightAware ADS-B (KHOU)
Fri 11:48:54 PM 30.5737 -96.8962 59° Northeast 488 562 21,100 2,069 Climbing FlightAware ADS-B
Fri 11:49:21 PM 30.6131 -96.8381 52° Northeast 497 572 22,000 1,692 Climbing FlightAware ADS-B (KHOU)
Fri 11:49:33 PM 30.6308 -96.8129 51° Northeast 501 577 22,200 1,548 Climbing FlightAware ADS-B
Fri 11:49:52 PM 30.6564 -96.7745 52° Northeast 507 583 22,800 1,935 Climbing FlightAware ADS-B (KHOU)
Fri 11:50:04 PM 30.6736 -96.7490 52° Northeast 509 586 23,200 1,862 Climbing FlightAware ADS-B
Fri 11:50:21 PM 30.7008 -96.7101 51° Northeast 514 592 23,700 1,800 Climbing FlightAware ADS-B (KHOU)
Fri 11:50:44 PM 30.7326 -96.6621 52° Northeast 517 595 24,400 1,800 Climbing FlightAware ADS-B
Fri 11:50:51 PM 30.7453 -96.6447 50° Northeast 519 597 24,600 1,600 Climbing FlightAware ADS-B (KHOU)
Fri 11:51:14 PM 30.7778 -96.5963 52° Northeast 523 602 25,200 1,400 Climbing FlightAware ADS-B
Fri 11:51:21 PM 30.7881 -96.5808 52° Northeast 527 606 25,300 1,105 Climbing FlightAware ADS-B (KHOU)
Fri 11:51:52 PM 30.8361 -96.5112 51° Northeast 538 619 25,900 1,313 Climbing FlightAware ADS-B (KHOU)
Fri 11:51:53 PM 30.8385 -96.5066 59° Northeast 537 618 26,000 1,241 Climbing FlightAware ADS-B
Fri 11:52:21 PM 30.8808 -96.4446 51° Northeast 546 628 26,500 1,200 Climbing FlightAware ADS-B (KHOU)
Fri 11:52:33 PM 30.8999 -96.4144 54° Northeast 549 632 26,800 1,400 Climbing FlightAware ADS-B
Fri 11:52:51 PM 30.9289 -96.3723 51° Northeast 553 636 27,200 1,400 Climbing FlightAware ADS-B (KHOU)
Fri 11:53:03 PM 30.9479 -96.3442 52° Northeast 556 640 27,500 1,400 Climbing FlightAware ADS-B
Fri 11:53:21 PM 30.9763 -96.3017 52° Northeast 560 644 27,900 1,355 Climbing FlightAware ADS-B (KHOU)
Fri 11:53:34 PM 30.9964 -96.2730 51° Northeast 561 646 28,200 1,355 Climbing FlightAware ADS-B
Fri 11:53:52 PM 31.0247 -96.2300 53° Northeast 564 649 28,600 1,692 Climbing FlightAware ADS-B (KHOU)
Fri 11:54:13 PM 31.0591 -96.1772 53° Northeast 560 644 29,300 2,069 Climbing FlightAware ADS-B
Fri 11:54:21 PM 31.0719 -96.1583 52° Northeast 561 646 29,600 1,935 Climbing FlightAware ADS-B (KHOU)
Fri 11:54:44 PM 31.1078 -96.1060 51° Northeast 559 643 30,300 1,742 Climbing FlightAware ADS-B
Fri 11:54:52 PM 31.1200 -96.0869 53° Northeast 560 644 30,500 1,600 Climbing FlightAware ADS-B (KHOU)
Fri 11:55:14 PM 31.1566 -96.0321 52° Northeast 560 644 31,100 1,448 Climbing FlightAware ADS-B
Fri 11:55:21 PM 31.1659 -96.0178 53° Northeast 560 644 31,200 1,548 Climbing FlightAware ADS-B (KHOU)
Fri 11:55:45 PM 31.2038 -95.9605 52° Northeast 558 642 31,900 1,800 Climbing FlightAware ADS-B
Fri 11:55:51 PM 31.2137 -95.9462 51° Northeast 558 642 32,100 1,500 Climbing FlightAware ADS-B (KHOU)
Fri 11:56:21 PM 31.2621 -95.8726 52° Northeast 559 643 32,800 1,364 Climbing FlightAware ADS-B (KHOU)
Fri 11:56:35 PM 31.2827 -95.8415 52° Northeast 558 642 33,100 1,548 Climbing FlightAware ADS-B
Fri 11:56:52 PM 31.3102 -95.8011 51° Northeast 557 641 33,600 1,333 Climbing FlightAware ADS-B (KHOU)
Fri 11:57:20 PM 31.3554 -95.7320 53° Northeast 559 643 34,100 1,220 Climbing FlightAware ADS-B (KHOU)
Fri 11:57:51 PM 31.4034 -95.6602 52° Northeast 559 643 34,800 684 Climbing FlightAware ADS-B (KHOU)
Fri 11:58:39 PM 31.4757 -95.5501 52° Northeast 559 643 35,000 150 Climbing FlightAware ADS-B (KHOU)
Fri 11:59:11 PM 31.4757 -95.5501 52° Northeast 560 644 35,000  Level FlightAware ADS-B (KHOU)
Sat 12:00:23 AM 31.6336 -95.3097 52° Northeast 559 643 35,000  Level Fort Worth Center
Sat 12:06:31 AM 32.2230 -94.3984 52° Northeast 563 648 35,000 15 Level FlightAware ADS-B
Sat 12:07:01 AM 32.2697 -94.3250 53° Northeast 563 648 35,100  Climbing FlightAware ADS-B
Sat 12:07:39 AM 32.3291 -94.2315 53° Northeast 562 647 35,000 -68 Descending FlightAware ADS-B
Sat 12:08:29 AM 32.3970 -94.1262 53° Northeast 563 648 35,000  Level FlightAware ADS-B
Sat 12:08:59 AM 32.4483 -94.0446 53° Northeast 564 649 35,000  Level FlightAware ADS-B
Sat 12:09:29 AM 32.5002 -93.9602 54° Northeast 564 649 35,000  Level FlightAware ADS-B
Sat 12:09:41 AM 32.5176 -93.9330 53° Northeast 566 651 35,000  Level FlightAware ADS-B (KHOU)
Sat 12:10:09 AM 32.5638 -93.8612 53° Northeast 565 650 35,000  Level FlightAware ADS-B
Sat 12:10:11 AM 32.5668 -93.8563 54° Northeast 566 651 35,000  Level FlightAware ADS-B (KHOU)
Sat 12:10:41 AM 32.6135 -93.7815 53° Northeast 566 651 35,000  Level FlightAware ADS-B (KHOU)
Sat 12:10:48 AM 32.6244 -93.7642 53° Northeast 565 650 35,000  Level FlightAware ADS-B
Sat 12:11:11 AM 32.6592 -93.7095 53° Northeast 566 651 35,000  Level FlightAware ADS-B (KHOU)
Sat 12:11:21 AM 32.6716 -93.6897 53° Northeast 565 650 35,000  Level FlightAware ADS-B
Sat 12:11:41 AM 32.6608 -93.7072 234° Southwest 566 651 35,000  Level FlightAware ADS-B (KHOU)
Sat 12:12:37 AM 32.7944 -93.4926 53° Northeast 566 651 35,000  Level FlightAware ADS-B
Sat 12:13:07 AM 32.8417 -93.4176 53° Northeast 567 652 35,000  Level FlightAware ADS-B
Sat 12:13:11 AM 32.8476 -93.4076 55° Northeast 567 652 35,000  Level FlightAware ADS-B (KHOU)
Sat 12:13:39 AM 32.8904 -93.3373 54° Northeast 567 652 35,000  Level FlightAware ADS-B
Sat 12:14:09 AM 32.9379 -93.2621 53° Northeast 567 652 35,000  Level FlightAware ADS-B
Sat 12:14:10 AM 32.9393 -93.2594 58° Northeast 568 654 35,000  Level FlightAware ADS-B (KHOU)
Sat 12:14:39 AM 32.9846 -93.1865 53° Northeast 567 652 35,000  Level FlightAware ADS-B
Sat 12:14:41 AM 32.9870 -93.1815 59° Northeast 568 654 35,000  Level FlightAware ADS-B (KHOU)
Sat 12:15:09 AM 33.0260 -93.1184 54° Northeast 569 655 35,000  Level FlightAware ADS-B (KHOU)
Sat 12:15:19 AM 33.0460 -93.0857 54° Northeast 569 655 35,000  Level FlightAware ADS-B
Sat 12:15:49 AM 33.0902 -93.0150 53° Northeast 569 655 35,000  Level FlightAware ADS-B
Sat 12:16:11 AM 33.1277 -92.9544 54° Northeast 570 656 35,000  Level FlightAware ADS-B (KHOU)
Sat 12:16:19 AM 33.1379 -92.9365 56° Northeast 570 656 35,000  Level FlightAware ADS-B
Sat 12:16:33 AM 33.1509 -92.9162 53° Northeast 571 657 35,000  Level FlightAware ADS-B (KHOU)
Sat 12:16:49 AM 33.1863 -92.8577 54° Northeast 571 657 35,000  Level FlightAware ADS-B
Sat 12:17:19 AM 33.2337 -92.7814 53° Northeast 571 657 35,000  Level FlightAware ADS-B
Sat 12:17:59 AM 33.2957 -92.6790 54° Northeast 573 659 35,000  Level FlightAware ADS-B
Sat 12:18:29 AM 33.3403 -92.6005 56° Northeast 575 662 35,000  Level FlightAware ADS-B
Sat 12:19:19 AM 33.4156 -92.4695 55° Northeast 574 661 35,000  Level FlightAware ADS-B
Sat 12:19:49 AM 33.4603 -92.3937 55° Northeast 575 662 35,000  Level FlightAware ADS-B
Sat 12:20:19 AM 33.5062 -92.3123 56° Northeast 576 663 35,000  Level FlightAware ADS-B
Sat 12:20:49 AM 33.5512 -92.2363 55° Northeast 576 663 35,000  Level FlightAware ADS-B
Sat 12:21:19 AM 33.5976 -92.1547 56° Northeast 577 664 35,000  Level FlightAware ADS-B
Sat 12:21:49 AM 33.6427 -92.0757 56° Northeast 572 658 35,000  Level FlightAware ADS-B
Sat 12:22:29 AM 33.7022 -91.9711 56° Northeast 571 657 35,000 -686 Level FlightAware ADS-B
Sat 12:22:59 AM 33.7467 -91.8928 56° Northeast 568 654 34,200 -2,455 Descending FlightAware ADS-B
Sat 12:23:35 AM 33.7941 -91.8096 56° Northeast 561 646 32,300 -3,231 Descending FlightAware ADS-B
Sat 12:24:43 AM 33.8853 -91.6472 56° Northeast 562 647 28,600 -3,349 Descending Fort Worth Center
Sat 12:25:44 AM 33.9744 -91.5061 53° Northeast 537 618 25,100 -2,931 Descending Fort Worth Center
Sat 12:26:54 AM 34.0939 -91.3439 48° Northeast 510 587 22,200 -2,107 Descending Memphis Center
Sat 12:27:55 AM 34.1783 -91.2267 49° Northeast 490 564 20,500 -1,736 Descending Memphis Center
Sat 12:28:55 AM 34.2603 -91.1147 48° Northeast 472 543 18,700 -1,736 Descending Memphis Center
Sat 12:29:56 AM 34.3358 -91.0097 49° Northeast 447 514 17,000 -1,820 Descending Memphis Center
Sat 12:30:57 AM 34.4011 -90.9169 50° Northeast 425 489 15,000 -1,869 Descending Memphis Center
Sat 12:31:58 AM 34.4725 -90.8186 49° Northeast 408 470 13,200 -1,785 Descending Memphis Center
Sat 12:32:58 AM 34.5403 -90.7164 51° Northeast 376 433 11,400 -1,587 Descending Memphis Center
Sat 12:33:59 AM 34.5914 -90.6311 54° Northeast 356 410 10,000 -738 Descending Memphis Center
Sat 12:35:00 AM 34.6428 -90.5386 56° Northeast 289 333 9,900 -446 Descending Memphis Center
Sat 12:36:00 AM 34.6622 -90.4733 70° East 265 305 9,100 -1,140 Descending Memphis Center
Sat 12:37:01 AM 34.6897 -90.3861 69° East 254 292 7,600 -1,339 Descending Memphis Center
Sat 12:38:01 AM 34.7153 -90.3069 69° East 252 290 6,400 -793 Descending Memphis Center
Sat 12:39:02 AM 34.7442 -90.2161 69° East 252 290 6,000 -667 Descending Memphis Center
Sat 12:41:28 AM 34.8000 -90.0333 70° East 237 273 4,100 -553 Descending KMEM
Sat 12:42:28 AM 34.8333 -89.9833 51° Northeast 199 229 4,100 -496 Level KMEM
Sat 12:43:29 AM 34.8833 -89.9833 360° North 179 206 3,100 -1,000 Descending KMEM
Sat 12:44:28 AM 34.9333 -89.9833 360° North 180 207 2,100 -908 Descending KMEM
Sat 12:45:28 AM 34.9833 -89.9833 360° North 149 171 1,300 -800 Descending KMEM
Sat 12:47:00 AM 35.0333 -89.9667 13° North  Level FlightAware Approximate
Sat 12:54:00 AM 35.0424 -89.9767 13° North  Level Estimated

Login

Don't have an account? Register now (free) for customized features, flight alerts, and more!